Time;durP1;ratioP1;P1;durP2;ratioP2;P2;SDS_P1;SDS_P2;PMS_P1;PMS_P2;Temp;Humidity;BMP_temperature;BMP_pressure;BME280_temperature;BME280_humidity;BME280_pressure;Samples;Min_cycle;Max_cycle;Signal;HPM_P1;HPM_P2
2023/05/27 04:22:33;;;;;;;;;;;14.90;99.90;;;;;;5038025;28;19948;-78
2023/05/27 04:24:59;;;;;;;;;;;14.90;99.90;;;;;;5038453;28;20399;-75
2023/05/27 04:27:26;;;;;;;;;;;15.00;99.90;;;;;;5040222;28;19904;-75
2023/05/27 04:29:53;;;;;;;;;;;14.90;99.80;;;;;;5036860;28;19974;-75
2023/05/27 04:32:20;;;;;;;;;;;14.90;99.90;;;;;;5041096;28;20000;-75
2023/05/27 04:34:47;;;;;;;;;;;15.10;99.70;;;;;;5040215;28;19996;-75
2023/05/27 04:37:12;;;;;;;;;;;15.10;99.80;;;;;;5039976;28;19909;-76
2023/05/27 04:39:45;;;;;;;;;;;15.30;99.50;;;;;;5044508;28;20253;-75
2023/05/27 04:42:12;;;;;;;;;;;15.50;99.30;;;;;;5039124;28;19913;-75
2023/05/27 04:44:38;;;;;;;;;;;15.60;98.80;;;;;;5042306;28;19971;-75
2023/05/27 04:47:04;;;;;;;;;;;15.60;98.60;;;;;;5037834;28;20345;-76
2023/05/27 04:49:34;;;;;;;;;;;15.70;98.80;;;;;;5041336;28;19955;-75
2023/05/27 04:52:01;;;;;;;;;;;15.70;98.20;;;;;;5044616;28;19916;-75
2023/05/27 04:54:26;;;;;;;;;;;15.60;98.60;;;;;;5053880;28;19955;-76
2023/05/27 04:56:54;;;;;;;;;;;15.80;98.10;;;;;;5040408;28;19952;-76
2023/05/27 04:59:35;;;;;;;;;;;15.90;98.00;;;;;;5055890;28;20003;-76
2023/05/27 05:02:09;;;;;;;;;;;16.00;97.70;;;;;;5039545;28;20004;-74
2023/05/27 05:04:38;;;;;;;;;;;16.10;99.50;;;;;;5055300;28;19912;-76
2023/05/27 05:07:13;;;;;;;;;;;15.80;98.90;;;;;;5053416;28;19909;-76
2023/05/27 05:09:41;;;;;;;;;;;15.80;98.70;;;;;;5041761;28;19905;-76
2023/05/27 05:12:07;;;;;;;;;;;16.00;98.50;;;;;;5043926;28;19911;-77
2023/05/27 05:14:35;;;;;;;;;;;16.30;97.90;;;;;;5045986;28;19905;-77
2023/05/27 05:17:05;;;;;;;;;;;16.60;97.80;;;;;;5056286;28;19905;-79
2023/05/27 05:19:30;;;;;;;;;;;16.50;97.40;;;;;;5040802;28;20355;-71
2023/05/27 05:21:58;;;;;;;;;;;16.40;98.30;;;;;;5056433;28;19928;-71
2023/05/27 05:24:23;;;;;;;;;;;16.80;96.80;;;;;;5047033;28;19924;-71
2023/05/27 05:26:50;;;;;;;;;;;17.00;96.70;;;;;;5041641;28;19904;-70
2023/05/27 05:29:18;;;;;;;;;;;17.30;96.30;;;;;;5045473;28;19959;-71
2023/05/27 05:31:45;;;;;;;;;;;17.50;96.00;;;;;;5043484;28;19919;-71
2023/05/27 05:34:10;;;;;;;;;;;17.90;95.40;;;;;;5060704;28;19931;-72
2023/05/27 05:36:37;;;;;;;;;;;17.70;94.10;;;;;;5046123;28;19908;-72
2023/05/27 05:39:03;;;;;;;;;;;17.70;95.10;;;;;;5046925;28;19952;-71
2023/05/27 05:41:29;;;;;;;;;;;17.70;94.60;;;;;;5042337;28;19948;-71
2023/05/27 05:43:54;;;;;;;;;;;18.00;94.70;;;;;;5044643;28;19930;-72
2023/05/27 05:46:20;;;;;;;;;;;18.40;93.80;;;;;;5046305;28;20367;-72
2023/05/27 05:48:45;;;;;;;;;;;18.60;92.70;;;;;;5056210;28;19913;-71
2023/05/27 05:51:12;;;;;;;;;;;18.80;92.90;;;;;;5035167;28;19905;-72
2023/05/27 05:53:38;;;;;;;;;;;19.00;92.40;;;;;;5041584;28;19901;-72
2023/05/27 05:56:07;;;;;;;;;;;19.60;91.50;;;;;;5045293;28;19995;-78
2023/05/27 05:58:33;;;;;;;;;;;20.10;91.10;;;;;;5064226;28;20290;-78
2023/05/27 06:01:04;;;;;;;;;;;20.60;90.10;;;;;;5048665;28;19970;-78
2023/05/27 06:03:30;;;;;;;;;;;22.10;86.40;;;;;;5060418;28;19916;-78
2023/05/27 06:06:02;;;;;;;;;;;24.00;80.10;;;;;;5058469;28;19904;-78
2023/05/27 06:08:30;;;;;;;;;;;24.90;73.30;;;;;;5040874;28;19912;-78
2023/05/27 06:11:02;;;;;;;;;;;25.80;70.10;;;;;;5057709;28;20011;-77
2023/05/27 06:13:33;;;;;;;;;;;26.30;68.20;;;;;;5057246;28;19917;-77
2023/05/27 06:15:59;;;;;;;;;;;27.00;65.60;;;;;;5042721;28;19909;-78
2023/05/27 06:18:28;;;;;;;;;;;26.80;62.30;;;;;;5046720;28;20364;-77
2023/05/27 06:26:32;;;;;;;;;;;28.00;59.10;;;;;;5047859;28;20685;-80
2023/05/27 06:32:00;;;;;;;;;;;28.30;58.60;;;;;;5049123;28;19911;-79
2023/05/27 06:37:29;;;;;;;;;;;27.60;58.00;;;;;;5044477;28;20363;-78
2023/05/27 06:42:57;;;;;;;;;;;27.40;57.60;;;;;;5050937;28;19919;-79
2023/05/27 06:48:26;;;;;;;;;;;27.40;57.50;;;;;;5045105;28;19963;-80
2023/05/27 06:53:54;;;;;;;;;;;28.90;56.60;;;;;;5042864;28;20356;-81
2023/05/27 06:59:22;;;;;;;;;;;31.00;53.40;;;;;;5043113;28;19927;-80
2023/05/27 07:04:53;;;;;;;;;;;32.20;51.50;;;;;;5042923;28;19912;-79
2023/05/27 07:10:22;;;;;;;;;;;31.60;51.70;;;;;;5043276;28;19927;-82
2023/05/27 07:15:51;;;;;;;;;;;28.00;54.30;;;;;;5046609;28;19955;-79
2023/05/27 07:18:41;;;;;;;;;;;29.20;54.00;;;;;;5043137;28;19912;-78
2023/05/27 07:21:12;;;;;;;;;;;30.60;52.30;;;;;;5033586;28;19990;-78
2023/05/27 07:23:50;;;;;;;;;;;30.40;51.40;;;;;;5016218;28;21085;-78
2023/05/27 07:26:17;;;;;;;;;;;30.10;51.80;;;;;;5018177;28;19912;-80
2023/05/27 07:29:00;;;;;;;;;;;31.60;51.10;;;;;;5018315;28;20837;-83
2023/05/27 07:31:27;;;;;;;;;;;32.90;49.50;;;;;;5017311;28;20250;-79
2023/05/27 07:34:05;;;;;;;;;;;33.50;48.60;;;;;;5033584;28;20261;-80
2023/05/27 07:36:33;;;;;;;;;;;34.50;47.70;;;;;;5013430;28;19905;-80
2023/05/27 07:39:04;;;;;;;;;;;34.10;47.10;;;;;;5037788;28;20655;-82
2023/05/27 07:41:32;;;;;;;;;;;33.40;47.70;;;;;;5022473;28;19948;-82
2023/05/27 07:44:06;;;;;;;;;;;32.30;49.30;;;;;;5036440;28;19909;-83
2023/05/27 07:46:33;;;;;;;;;;;30.40;50.40;;;;;;5023013;28;19912;-84
2023/05/27 07:49:01;;;;;;;;;;;29.50;51.60;;;;;;5030656;28;20602;-81
2023/05/27 07:51:32;;;;;;;;;;;28.10;50.90;;;;;;5021338;28;19948;-81
2023/05/27 07:54:09;;;;;;;;;;;27.70;52.60;;;;;;5021177;28;19980;-82
2023/05/27 07:56:36;;;;;;;;;;;28.50;51.40;;;;;;5040990;28;20610;-84
2023/05/27 07:59:16;;;;;;;;;;;29.10;50.50;;;;;;5020285;28;19996;-80
2023/05/27 08:01:44;;;;;;;;;;;30.30;49.30;;;;;;5017875;28;19944;-82
2023/05/27 08:04:13;;;;;;;;;;;30.00;50.10;;;;;;5035311;28;19905;-81
2023/05/27 08:06:40;;;;;;;;;;;28.50;51.70;;;;;;5023628;28;19905;-82
2023/05/27 08:09:07;;;;;;;;;;;26.80;51.80;;;;;;5031190;28;19948;-87
2023/05/27 08:11:39;;;;;;;;;;;27.50;52.70;;;;;;5021753;28;19905;-87
2023/05/27 08:14:08;;;;;;;;;;;28.90;51.80;;;;;;5036831;28;20003;-83
2023/05/27 08:16:36;;;;;;;;;;;28.30;53.20;;;;;;5040252;28;19909;-82
2023/05/27 08:19:02;;;;;;;;;;;27.90;52.60;;;;;;5020284;28;20598;-80
2023/05/27 08:21:28;;;;;;;;;;;27.20;52.70;;;;;;5020902;28;19932;-79
2023/05/27 08:23:53;;;;;;;;;;;27.00;53.30;;;;;;5016578;28;20454;-81
2023/05/27 08:26:20;;;;;;;;;;;29.30;52.90;;;;;;5020718;28;19992;-77
2023/05/27 08:28:46;;;;;;;;;;;31.10;50.00;;;;;;5021126;28;19917;-81
2023/05/27 08:31:12;;;;;;;;;;;30.40;48.70;;;;;;5021194;28;19913;-79
2023/05/27 08:33:46;;;;;;;;;;;31.20;50.00;;;;;;5024460;28;19912;-79
2023/05/27 08:36:14;;;;;;;;;;;30.20;50.30;;;;;;5021037;28;19920;-80
2023/05/27 08:38:42;;;;;;;;;;;30.50;49.40;;;;;;5037274;28;19905;-82
2023/05/27 08:41:08;;;;;;;;;;;30.70;48.80;;;;;;5022673;28;19912;-79
2023/05/27 08:43:34;;;;;;;;;;;29.60;50.00;;;;;;5020894;28;19913;-81
2023/05/27 08:46:00;;;;;;;;;;;29.40;50.40;;;;;;5018890;28;19905;-79
2023/05/27 08:48:26;;;;;;;;;;;28.00;50.90;;;;;;5036577;28;19912;-79
2023/05/27 08:51:01;;;;;;;;;;;28.80;50.50;;;;;;5036206;28;19905;-81
2023/05/27 08:53:31;;;;;;;;;;;29.50;49.60;;;;;;5034652;28;20413;-80
2023/05/27 08:56:00;;;;;;;;;;;29.00;50.90;;;;;;5034799;28;20623;-81
2023/05/27 08:58:27;;;;;;;;;;;29.60;50.70;;;;;;5035356;28;20256;-80
2023/05/27 09:00:56;;;;;;;;;;;29.50;50.90;;;;;;5021427;28;19911;-81
2023/05/27 09:03:23;;;;;;;;;;;31.10;49.20;;;;;;5035371;28;19909;-80
2023/05/27 09:05:57;;;;;;;;;;;31.00;48.50;;;;;;5033146;28;19916;-79
2023/05/27 09:08:36;;;;;;;;;;;29.40;50.00;;;;;;5019589;28;19905;-79
2023/05/27 09:11:08;;;;;;;;;;;27.90;50.50;;;;;;5020662;28;19909;-80
2023/05/27 09:13:33;;;;;;;;;;;28.00;50.60;;;;;;5018891;28;19909;-81
2023/05/27 09:16:03;;;;;;;;;;;28.40;49.90;;;;;;5039504;28;20627;-80
2023/05/27 09:18:34;;;;;;;;;;;28.50;50.00;;;;;;5023027;28;19919;-78
2023/05/27 09:21:00;;;;;;;;;;;27.70;49.70;;;;;;5035783;28;19940;-78
2023/05/27 09:23:28;;;;;;;;;;;27.20;51.30;;;;;;5035175;28;20045;-76
2023/05/27 09:25:53;;;;;;;;;;;27.00;51.90;;;;;;5018813;28;19909;-79
2023/05/27 09:28:25;;;;;;;;;;;27.40;51.30;;;;;;5034668;28;19905;-79
2023/05/27 09:30:51;;;;;;;;;;;27.10;50.60;;;;;;5018587;28;20047;-78
2023/05/27 09:33:24;;;;;;;;;;;25.90;50.90;;;;;;5019551;28;19905;-78
2023/05/27 09:35:50;;;;;;;;;;;26.10;51.70;;;;;;5019260;28;19905;-65
2023/05/27 09:38:18;;;;;;;;;;;26.10;51.70;;;;;;5018972;28;19912;-75
2023/05/27 09:40:44;;;;;;;;;;;26.60;52.00;;;;;;5034514;28;19924;-76
2023/05/27 09:43:16;;;;;;;;;;;27.20;51.30;;;;;;5019300;28;20007;-76
2023/05/27 09:45:48;;;;;;;;;;;27.50;51.70;;;;;;5018668;28;19912;-75
2023/05/27 09:48:18;;;;;;;;;;;29.70;49.10;;;;;;5023449;28;19924;-75
2023/05/27 09:50:46;;;;;;;;;;;31.80;47.90;;;;;;5018834;28;19956;-75
2023/05/27 09:53:13;;;;;;;;;;;33.10;45.70;;;;;;5023122;28;19999;-76
2023/05/27 09:55:42;;;;;;;;;;;33.30;45.10;;;;;;5018160;28;19909;-75
2023/05/27 09:58:10;;;;;;;;;;;31.90;45.00;;;;;;5018893;28;19963;-76
2023/05/27 10:00:36;;;;;;;;;;;30.00;47.60;;;;;;5017752;28;19991;-75
2023/05/27 10:03:03;;;;;;;;;;;28.80;48.60;;;;;;5019044;28;19995;-73
2023/05/27 10:05:30;;;;;;;;;;;29.20;49.20;;;;;;5027232;28;20003;-73
2023/05/27 10:07:55;;;;;;;;;;;31.00;47.20;;;;;;5019125;28;19963;-73
2023/05/27 10:10:22;;;;;;;;;;;32.60;45.80;;;;;;5025486;28;19909;-75
2023/05/27 10:12:51;;;;;;;;;;;32.60;44.90;;;;;;5022880;28;19909;-73
2023/05/27 10:15:29;;;;;;;;;;;33.80;43.90;;;;;;5036813;28;19944;-73
2023/05/27 10:17:56;;;;;;;;;;;34.70;43.70;;;;;;5021353;28;19913;-75
2023/05/27 10:20:24;;;;;;;;;;;33.50;42.90;;;;;;5018430;28;19905;-74
2023/05/27 10:22:51;;;;;;;;;;;32.60;44.70;;;;;;5026919;28;20533;-75
2023/05/27 10:25:17;;;;;;;;;;;32.90;43.50;;;;;;5016527;28;19972;-75
2023/05/27 10:27:44;;;;;;;;;;;33.10;42.90;;;;;;5018162;28;20866;-72
2023/05/27 10:30:11;;;;;;;;;;;34.30;42.40;;;;;;5022323;28;19933;-75
2023/05/27 10:32:49;;;;;;;;;;;33.90;42.20;;;;;;5021186;28;19927;-75
2023/05/27 10:35:18;;;;;;;;;;;35.00;42.60;;;;;;5028603;28;19916;-75
2023/05/27 10:37:46;;;;;;;;;;;31.60;44.20;;;;;;5022211;28;19913;-75
2023/05/27 10:40:11;;;;;;;;;;;28.90;46.60;;;;;;5018786;28;19909;-75
2023/05/27 10:42:42;;;;;;;;;;;28.90;47.40;;;;;;5036059;28;20373;-75
2023/05/27 10:45:13;;;;;;;;;;;28.40;47.90;;;;;;5015860;28;19920;-75
2023/05/27 10:47:44;;;;;;;;;;;29.00;47.80;;;;;;5029275;28;20266;-74
2023/05/27 10:50:12;;;;;;;;;;;30.50;46.70;;;;;;5038697;28;20259;-76
2023/05/27 10:52:39;;;;;;;;;;;32.70;45.40;;;;;;5022058;28;19932;-75
2023/05/27 10:55:08;;;;;;;;;;;32.80;44.20;;;;;;5021060;28;19954;-76
2023/05/27 10:57:34;;;;;;;;;;;31.00;45.00;;;;;;5031740;28;19963;-75
2023/05/27 11:00:03;;;;;;;;;;;29.90;45.50;;;;;;5037090;28;19905;-75
2023/05/27 11:02:34;;;;;;;;;;;28.30;46.30;;;;;;5016561;28;19917;-74
2023/05/27 11:05:00;;;;;;;;;;;27.40;47.20;;;;;;5016540;28;20490;-74
2023/05/27 11:07:27;;;;;;;;;;;25.80;49.50;;;;;;5016734;28;19909;-71
2023/05/27 11:09:55;;;;;;;;;;;24.40;51.60;;;;;;5018093;28;19909;-71
2023/05/27 11:12:22;;;;;;;;;;;23.80;52.60;;;;;;5033050;28;19909;-70
2023/05/27 11:14:52;;;;;;;;;;;23.40;53.00;;;;;;5031877;28;19913;-72
2023/05/27 11:17:18;;;;;;;;;;;23.70;53.20;;;;;;5018141;28;19916;-71
2023/05/27 11:19:48;;;;;;;;;;;23.90;54.40;;;;;;5035816;28;19937;-71
2023/05/27 11:22:14;;;;;;;;;;;23.70;54.30;;;;;;5048694;28;19935;-71
2023/05/27 11:24:42;;;;;;;;;;;24.20;53.60;;;;;;5035437;28;19955;-73
2023/05/27 11:27:12;;;;;;;;;;;24.40;53.20;;;;;;5020061;28;20329;-72
2023/05/27 11:29:38;;;;;;;;;;;24.90;53.10;;;;;;5019084;28;19967;-73
2023/05/27 11:32:05;;;;;;;;;;;25.00;52.20;;;;;;5026405;28;19905;-72
2023/05/27 11:34:36;;;;;;;;;;;24.60;52.00;;;;;;5020727;28;19991;-73
2023/05/27 11:37:05;;;;;;;;;;;24.30;54.50;;;;;;5021547;28;19909;-72
2023/05/27 11:39:32;;;;;;;;;;;24.60;53.40;;;;;;5036860;28;19912;-72
2023/05/27 11:41:59;;;;;;;;;;;25.00;52.90;;;;;;5020030;28;19921;-72
2023/05/27 11:44:25;;;;;;;;;;;25.20;52.50;;;;;;5036125;28;20543;-73
2023/05/27 11:46:52;;;;;;;;;;;25.40;52.00;;;;;;5038957;28;20313;-71
2023/05/27 11:49:19;;;;;;;;;;;25.40;50.50;;;;;;5019908;28;19905;-72
2023/05/27 11:51:54;;;;;;;;;;;25.50;50.40;;;;;;5036315;28;19952;-72
2023/05/27 11:54:23;;;;;;;;;;;25.50;51.10;;;;;;5016664;28;19908;-72
2023/05/27 11:56:49;;;;;;;;;;;25.30;50.60;;;;;;5021040;28;19909;-72
2023/05/27 11:59:17;;;;;;;;;;;25.30;49.60;;;;;;5034988;28;19924;-72
2023/05/27 12:01:44;;;;;;;;;;;25.30;50.90;;;;;;5021582;28;19916;-72
2023/05/27 12:04:13;;;;;;;;;;;25.30;51.90;;;;;;5039369;28;20361;-71
2023/05/27 12:06:38;;;;;;;;;;;25.10;52.80;;;;;;5020409;28;19931;-71
2023/05/27 12:09:10;;;;;;;;;;;25.10;51.70;;;;;;5020851;28;20625;-72
2023/05/27 12:11:36;;;;;;;;;;;25.20;52.10;;;;;;5017228;28;19940;-72
2023/05/27 12:14:05;;;;;;;;;;;24.70;52.10;;;;;;5035615;28;19944;-71
2023/05/27 12:16:31;;;;;;;;;;;24.30;53.80;;;;;;5020231;28;20372;-71
2023/05/27 12:18:58;;;;;;;;;;;23.70;54.70;;;;;;5029993;28;20358;-72
2023/05/27 12:21:24;;;;;;;;;;;23.50;55.30;;;;;;5020690;28;19905;-73
2023/05/27 12:23:50;;;;;;;;;;;23.90;55.60;;;;;;5035229;28;20607;-70
2023/05/27 12:26:15;;;;;;;;;;;24.00;55.60;;;;;;5022097;28;19913;-70
2023/05/27 12:28:42;;;;;;;;;;;24.50;54.90;;;;;;5022751;28;19971;-70
2023/05/27 12:31:10;;;;;;;;;;;24.00;54.70;;;;;;5020038;28;19912;-71
2023/05/27 12:33:36;;;;;;;;;;;23.70;55.60;;;;;;5020397;28;19909;-71
2023/05/27 12:36:02;;;;;;;;;;;23.40;54.20;;;;;;5035259;28;19905;-71
2023/05/27 12:38:27;;;;;;;;;;;23.20;55.90;;;;;;5016167;28;19913;-70
2023/05/27 12:40:55;;;;;;;;;;;23.40;54.40;;;;;;5023150;28;19912;-70
2023/05/27 12:43:21;;;;;;;;;;;23.70;54.70;;;;;;5016350;28;20365;-70
2023/05/27 12:45:46;;;;;;;;;;;23.90;54.30;;;;;;5018511;28;19908;-70
2023/05/27 12:48:12;;;;;;;;;;;24.00;55.30;;;;;;5034029;28;19909;-72
2023/05/27 12:50:40;;;;;;;;;;;24.20;55.60;;;;;;5019741;28;19909;-72
2023/05/27 12:53:08;;;;;;;;;;;24.00;55.90;;;;;;5018507;28;19909;-71
2023/05/27 12:55:35;;;;;;;;;;;23.80;55.20;;;;;;5017130;28;19955;-71
2023/05/27 12:58:00;;;;;;;;;;;23.60;54.80;;;;;;5019071;28;19905;-70
2023/05/27 13:00:28;;;;;;;;;;;23.50;55.30;;;;;;5021818;28;19919;-75
2023/05/27 13:02:54;;;;;;;;;;;23.40;54.70;;;;;;5035349;28;19913;-72
2023/05/27 13:05:20;;;;;;;;;;;23.40;54.60;;;;;;5019362;28;19912;-71
2023/05/27 13:08:00;;;;;;;;;;;23.70;53.60;;;;;;5018334;28;19905;-71
2023/05/27 13:10:27;;;;;;;;;;;24.00;52.50;;;;;;5018109;28;19905;-71
2023/05/27 13:12:54;;;;;;;;;;;23.60;53.30;;;;;;5035293;28;19909;-72
2023/05/27 13:15:20;;;;;;;;;;;23.50;53.80;;;;;;5018491;28;20308;-71
2023/05/27 13:17:47;;;;;;;;;;;23.40;53.90;;;;;;5034462;28;19948;-71
2023/05/27 13:20:13;;;;;;;;;;;23.30;54.00;;;;;;5033258;28;20645;-69
2023/05/27 13:22:41;;;;;;;;;;;23.20;53.80;;;;;;5017656;28;19957;-69
2023/05/27 13:25:07;;;;;;;;;;;23.40;54.70;;;;;;5015187;28;19909;-69
2023/05/27 13:27:33;;;;;;;;;;;23.20;53.50;;;;;;5016839;28;19994;-70
2023/05/27 13:29:59;;;;;;;;;;;23.40;54.40;;;;;;5016912;28;19913;-69
2023/05/27 13:32:24;;;;;;;;;;;23.20;54.30;;;;;;5017256;28;19909;-70
2023/05/27 13:34:51;;;;;;;;;;;23.10;54.50;;;;;;5015754;28;19909;-68
2023/05/27 13:37:18;;;;;;;;;;;23.00;53.20;;;;;;5026177;28;19909;-72
2023/05/27 13:39:46;;;;;;;;;;;23.10;53.00;;;;;;5021991;28;19924;-71
2023/05/27 13:42:11;;;;;;;;;;;23.20;54.40;;;;;;5012804;28;19920;-72
2023/05/27 13:44:38;;;;;;;;;;;23.40;53.50;;;;;;5021769;28;19913;-71
2023/05/27 13:47:04;;;;;;;;;;;23.50;53.70;;;;;;5017124;28;19908;-71
2023/05/27 13:49:30;;;;;;;;;;;23.50;53.60;;;;;;5018618;28;19905;-70
2023/05/27 13:51:56;;;;;;;;;;;23.30;54.10;;;;;;5018640;28;20008;-70
2023/05/27 13:54:22;;;;;;;;;;;23.30;54.40;;;;;;5024522;28;20000;-72
2023/05/27 13:56:50;;;;;;;;;;;23.50;53.90;;;;;;5018529;28;19908;-71
2023/05/27 13:59:16;;;;;;;;;;;23.70;53.90;;;;;;5014590;28;19940;-71
2023/05/27 14:01:42;;;;;;;;;;;23.60;52.80;;;;;;5037590;28;19935;-71
2023/05/27 14:04:07;;;;;;;;;;;23.40;53.20;;;;;;5017240;28;19913;-71
2023/05/27 14:06:35;;;;;;;;;;;23.20;52.60;;;;;;5018514;28;19912;-71
2023/05/27 14:09:06;;;;;;;;;;;23.10;52.80;;;;;;5017750;28;19928;-71
2023/05/27 14:11:33;;;;;;;;;;;23.00;53.20;;;;;;5020308;28;19921;-71
2023/05/27 14:13:59;;;;;;;;;;;23.30;54.60;;;;;;5017860;28;20046;-71
2023/05/27 14:16:26;;;;;;;;;;;23.50;54.90;;;;;;5037830;28;19987;-71
2023/05/27 14:18:52;;;;;;;;;;;23.50;54.60;;;;;;5019687;28;19959;-72
2023/05/27 14:21:19;;;;;;;;;;;23.50;55.60;;;;;;5013438;28;19917;-71
2023/05/27 14:23:45;;;;;;;;;;;23.40;55.50;;;;;;5016512;28;19928;-71
2023/05/27 14:26:15;;;;;;;;;;;23.20;55.80;;;;;;5019480;28;20449;-71
2023/05/27 14:28:42;;;;;;;;;;;23.10;56.20;;;;;;5020477;28;20683;-71
2023/05/27 14:31:07;;;;;;;;;;;23.10;56.30;;;;;;5017012;28;19909;-71
2023/05/27 14:33:34;;;;;;;;;;;23.10;56.70;;;;;;5017863;28;19909;-71
2023/05/27 14:36:00;;;;;;;;;;;23.20;56.10;;;;;;5032455;28;19905;-70
2023/05/27 14:38:25;;;;;;;;;;;23.10;55.80;;;;;;5032244;28;19905;-71
2023/05/27 14:40:52;;;;;;;;;;;23.10;55.60;;;;;;5017788;28;19909;-71
2023/05/27 14:43:18;;;;;;;;;;;23.00;55.40;;;;;;5017597;28;19917;-71
2023/05/27 14:45:46;;;;;;;;;;;22.70;56.80;;;;;;5023211;28;19948;-71
2023/05/27 14:48:11;;;;;;;;;;;22.60;56.60;;;;;;5017591;28;19917;-71
2023/05/27 14:50:37;;;;;;;;;;;22.40;56.90;;;;;;5020923;28;19909;-72
2023/05/27 14:53:03;;;;;;;;;;;22.50;57.70;;;;;;5017377;28;19905;-72
2023/05/27 14:55:29;;;;;;;;;;;22.70;57.20;;;;;;5028135;28;20377;-71
2023/05/27 14:57:55;;;;;;;;;;;22.80;57.40;;;;;;5020876;28;19911;-71
2023/05/27 15:00:20;;;;;;;;;;;22.90;57.20;;;;;;5013066;28;20629;-71
2023/05/27 15:02:46;;;;;;;;;;;22.90;56.10;;;;;;5016010;28;20404;-71
2023/05/27 15:05:12;;;;;;;;;;;22.90;56.00;;;;;;5021306;28;19909;-71
2023/05/27 15:07:39;;;;;;;;;;;23.00;55.10;;;;;;5017593;28;19966;-71
2023/05/27 15:10:05;;;;;;;;;;;22.90;55.20;;;;;;5015885;28;20245;-72
2023/05/27 15:12:42;;;;;;;;;;;22.70;55.70;;;;;;5015939;28;19905;-71
2023/05/27 15:15:13;;;;;;;;;;;22.60;55.00;;;;;;5016986;28;20362;-72
2023/05/27 15:17:40;;;;;;;;;;;22.60;55.20;;;;;;5030303;28;20257;-72
2023/05/27 15:20:06;;;;;;;;;;;22.70;55.80;;;;;;5032465;28;19916;-70
2023/05/27 15:22:36;;;;;;;;;;;22.60;56.00;;;;;;5028501;28;20004;-72
2023/05/27 15:25:02;;;;;;;;;;;22.70;56.90;;;;;;5032282;28;20031;-71
2023/05/27 15:27:27;;;;;;;;;;;22.80;55.70;;;;;;5017450;28;19992;-72
2023/05/27 15:29:53;;;;;;;;;;;23.00;55.10;;;;;;5017453;28;20350;-71
2023/05/27 15:32:18;;;;;;;;;;;22.90;53.60;;;;;;5011721;28;19908;-70
2023/05/27 15:34:46;;;;;;;;;;;22.50;53.90;;;;;;5031394;28;19982;-70
2023/05/27 15:37:11;;;;;;;;;;;22.40;53.60;;;;;;5016803;28;19909;-70
2023/05/27 15:39:43;;;;;;;;;;;22.10;54.40;;;;;;5018353;28;19992;-76
2023/05/27 15:42:11;;;;;;;;;;;22.10;54.30;;;;;;5015115;28;19913;-76
2023/05/27 15:44:38;;;;;;;;;;;22.20;53.90;;;;;;5033337;28;20274;-76
2023/05/27 15:47:05;;;;;;;;;;;22.20;54.10;;;;;;5016008;28;19992;-75
2023/05/27 15:49:36;;;;;;;;;;;22.20;54.60;;;;;;5020555;28;19957;-76
2023/05/27 15:52:10;;;;;;;;;;;22.30;54.50;;;;;;5018450;28;19905;-76
2023/05/27 15:54:37;;;;;;;;;;;22.30;53.70;;;;;;5025334;28;19905;-76
2023/05/27 15:57:08;;;;;;;;;;;22.10;53.90;;;;;;5018168;28;20000;-76
2023/05/27 15:59:34;;;;;;;;;;;21.90;53.50;;;;;;5012741;28;20195;-76
2023/05/27 16:02:04;;;;;;;;;;;22.00;53.90;;;;;;5022294;28;19913;-76
2023/05/27 16:04:34;;;;;;;;;;;21.90;54.10;;;;;;5034584;28;19906;-76
2023/05/27 16:07:11;;;;;;;;;;;21.70;53.80;;;;;;5036432;28;20003;-76
2023/05/27 16:09:37;;;;;;;;;;;21.70;54.60;;;;;;5017586;28;20005;-77
2023/05/27 16:12:03;;;;;;;;;;;21.70;55.20;;;;;;5026281;28;20607;-75
2023/05/27 16:14:30;;;;;;;;;;;21.70;55.30;;;;;;5025471;28;19917;-76
2023/05/27 16:16:58;;;;;;;;;;;21.70;55.60;;;;;;5020254;28;19912;-76
2023/05/27 16:19:23;;;;;;;;;;;21.70;55.20;;;;;;5036659;28;20369;-75
2023/05/27 16:21:49;;;;;;;;;;;21.60;55.30;;;;;;5035107;28;19917;-75
2023/05/27 16:24:17;;;;;;;;;;;21.40;55.70;;;;;;5018716;28;20131;-75
2023/05/27 16:26:43;;;;;;;;;;;21.40;55.60;;;;;;5040977;28;19909;-76
2023/05/27 16:29:14;;;;;;;;;;;21.40;56.10;;;;;;5046381;28;19916;-76
2023/05/27 16:31:45;;;;;;;;;;;21.40;55.20;;;;;;5019882;28;19909;-76
2023/05/27 16:34:15;;;;;;;;;;;21.40;54.00;;;;;;5035758;28;20000;-76
2023/05/27 16:36:42;;;;;;;;;;;21.20;54.80;;;;;;5029062;28;19909;-77
2023/05/27 16:39:16;;;;;;;;;;;21.20;54.70;;;;;;5018456;28;20318;-77
2023/05/27 16:41:46;;;;;;;;;;;21.20;54.60;;;;;;5036196;28;20465;-77
2023/05/27 16:44:13;;;;;;;;;;;21.10;54.80;;;;;;5020258;28;20357;-77
2023/05/27 16:46:41;;;;;;;;;;;21.10;55.20;;;;;;5018698;28;19905;-77
2023/05/27 16:49:12;;;;;;;;;;;21.00;54.80;;;;;;5035725;28;19952;-75
2023/05/27 16:51:41;;;;;;;;;;;20.90;55.60;;;;;;5018470;28;19909;-76
2023/05/27 16:54:13;;;;;;;;;;;21.00;56.10;;;;;;5017407;28;19984;-76
2023/05/27 16:56:42;;;;;;;;;;;20.80;55.30;;;;;;5019263;28;19905;-76
2023/05/27 16:59:11;;;;;;;;;;;20.80;54.90;;;;;;5038818;28;19924;-71
2023/05/27 17:01:39;;;;;;;;;;;20.80;55.60;;;;;;5025616;28;19909;-73
2023/05/27 17:04:06;;;;;;;;;;;20.80;54.60;;;;;;5020030;28;20372;-76
2023/05/27 17:06:39;;;;;;;;;;;20.80;56.20;;;;;;5017218;28;19905;-75
2023/05/27 17:09:07;;;;;;;;;;;20.70;56.00;;;;;;5048848;28;20511;-79
2023/05/27 17:11:33;;;;;;;;;;;20.70;56.60;;;;;;5020512;28;20179;-77
2023/05/27 17:14:01;;;;;;;;;;;20.60;56.00;;;;;;5020313;28;20357;-76
2023/05/27 17:16:27;;;;;;;;;;;20.60;56.50;;;;;;5018721;28;19909;-75
2023/05/27 17:19:03;;;;;;;;;;;20.50;56.90;;;;;;5020122;28;20346;-75
2023/05/27 17:21:30;;;;;;;;;;;20.50;57.00;;;;;;5023578;28;19912;-75
2023/05/27 17:23:57;;;;;;;;;;;20.40;57.20;;;;;;5018440;28;20024;-75
2023/05/27 17:26:22;;;;;;;;;;;20.40;57.50;;;;;;5030307;28;19909;-75
2023/05/27 17:28:55;;;;;;;;;;;20.40;57.70;;;;;;5019995;28;20047;-75
2023/05/27 17:31:27;;;;;;;;;;;20.30;58.20;;;;;;5020107;28;19945;-75
2023/05/27 17:33:58;;;;;;;;;;;20.30;59.10;;;;;;5032592;28;19909;-75
2023/05/27 17:36:24;;;;;;;;;;;20.20;58.90;;;;;;5018985;28;19940;-74
2023/05/27 17:38:52;;;;;;;;;;;20.10;58.90;;;;;;5018853;28;19971;-75
2023/05/27 17:41:20;;;;;;;;;;;20.10;59.60;;;;;;5019991;28;20003;-76
2023/05/27 17:43:47;;;;;;;;;;;20.10;60.10;;;;;;5019857;28;19920;-75
2023/05/27 17:46:15;;;;;;;;;;;20.00;60.10;;;;;;5018852;28;19905;-70
2023/05/27 17:48:41;;;;;;;;;;;20.00;60.40;;;;;;5038236;28;19955;-70
2023/05/27 17:51:08;;;;;;;;;;;19.90;61.50;;;;;;5033523;28;19999;-71
2023/05/27 17:53:35;;;;;;;;;;;19.90;61.20;;;;;;5030818;28;19931;-71
2023/05/27 17:56:04;;;;;;;;;;;19.80;61.30;;;;;;5018083;28;19959;-72
2023/05/27 17:58:30;;;;;;;;;;;19.80;62.00;;;;;;5018380;28;19988;-71
2023/05/27 18:00:58;;;;;;;;;;;19.80;62.00;;;;;;5018615;28;19980;-71
2023/05/27 18:03:25;;;;;;;;;;;19.90;62.40;;;;;;5018896;28;19909;-70
2023/05/27 18:05:50;;;;;;;;;;;19.80;62.20;;;;;;5011386;28;19909;-72
2023/05/27 18:08:16;;;;;;;;;;;19.70;62.90;;;;;;5018382;28;19916;-71
2023/05/27 18:10:42;;;;;;;;;;;19.70;63.70;;;;;;5017789;28;19941;-71
2023/05/27 18:13:13;;;;;;;;;;;19.60;62.70;;;;;;5017852;28;20330;-70
2023/05/27 18:15:41;;;;;;;;;;;19.50;63.50;;;;;;5016415;28;19912;-71
2023/05/27 18:18:07;;;;;;;;;;;19.40;63.60;;;;;;5018703;28;19905;-71
2023/05/27 18:20:33;;;;;;;;;;;19.40;64.80;;;;;;5018534;28;19905;-71
2023/05/27 18:22:58;;;;;;;;;;;19.30;65.00;;;;;;5014337;28;19928;-72
2023/05/27 18:25:25;;;;;;;;;;;19.00;63.70;;;;;;5016250;28;19912;-72
2023/05/27 18:27:51;;;;;;;;;;;19.00;65.10;;;;;;5016939;28;19909;-72
2023/05/27 18:30:19;;;;;;;;;;;18.90;65.30;;;;;;5029858;28;19913;-72
2023/05/27 18:32:49;;;;;;;;;;;18.80;64.90;;;;;;5022820;28;19963;-71
2023/05/27 18:35:14;;;;;;;;;;;18.70;65.40;;;;;;5032623;28;19948;-72
2023/05/27 18:37:41;;;;;;;;;;;18.60;65.70;;;;;;5018899;28;20333;-71
2023/05/27 18:40:07;;;;;;;;;;;18.60;65.70;;;;;;5013914;28;20324;-71
2023/05/27 18:42:33;;;;;;;;;;;18.60;65.80;;;;;;5015491;28;19943;-71
2023/05/27 18:44:58;;;;;;;;;;;18.50;66.30;;;;;;5017682;28;19912;-71
2023/05/27 18:47:27;;;;;;;;;;;18.50;65.70;;;;;;5012911;28;19932;-70
2023/05/27 18:49:52;;;;;;;;;;;18.30;65.40;;;;;;5017438;28;19996;-75
2023/05/27 18:52:18;;;;;;;;;;;18.20;66.40;;;;;;5028900;28;19999;-75
2023/05/27 18:54:45;;;;;;;;;;;18.20;65.10;;;;;;5032197;28;19936;-75
2023/05/27 18:57:29;;;;;;;;;;;18.10;66.00;;;;;;5032944;28;19917;-75
2023/05/27 18:59:56;;;;;;;;;;;18.10;65.20;;;;;;5017169;28;20354;-75
2023/05/27 19:02:23;;;;;;;;;;;18.00;65.50;;;;;;5033735;28;19913;-75
2023/05/27 19:04:49;;;;;;;;;;;18.00;65.50;;;;;;5013489;28;19909;-75
2023/05/27 19:07:15;;;;;;;;;;;18.00;66.10;;;;;;5022268;28;19913;-75
2023/05/27 19:09:45;;;;;;;;;;;18.00;66.40;;;;;;5016371;28;19909;-75
2023/05/27 19:12:12;;;;;;;;;;;17.90;66.80;;;;;;5032124;28;20511;-75
2023/05/27 19:14:39;;;;;;;;;;;17.80;67.30;;;;;;5017442;28;19932;-75